DeKalb Peachtree Airport
KPDK : now visible

Airfield :











YOU CAN JOIN US ON...

 
LOGIN :

Register | Disclaimer

   EN    FR    IT 

 









Legend :    VFR   Marginal VFR   IFR   Intensive IFR   Very Intensive IFR
Visi :
Ceiling :
>= 8 km
>= 3000ft
5 to 8 km
1000 to 3000 ft
1500m to 5 km
500 to 1000 ft
800 to 1500m
200 to 500 ft
< 800m
< 200 ft
Symbols :   Thunderstorms  Fog  Heavy snow  Heavy precipitations  Wind > 20 kt






- Airport Elevation : 1003 ft


KPDK - DeKalb Peachtree

CURRENT METAR :
  • 170553Z AUTO 28015G30KT 10SM OVC015 02/M01 A2970 RMK AO2 PK WND 29030/0545 SLP072 60000 T00171011 10017 20011 51019

EXPIRED METARs :
  • 170453Z AUTO 28014G24KT 10SM OVC016 02/M01 A2968 RMK AO2 PK WND 29029/0426 SLP065 T00171006 400390006
  • 170353Z AUTO 29019G40KT 10SM OVC015 02/M01 A2967 RMK AO2 PK WND 29040/0347 UPB37E47 SLP060 P0000 T00171006

TAF KPDK
Valid from the 17 at 06:00 until the 18 at 06:00 UTC


170551Z 1706/1806 29014G24KT P6SM OVC015
FM172000 30013G23KT P6SM BKN020
FM180300 30009KT P6SM BKN040
KZTL FIR / North America



MET'MAP, your aeronautical weather chart ! - Copyright ORBIFLY December 2007 - Disclaimer

ORBIFLY MET'MAP TEAM :

Programming & Development : Alexandra Zaïnal
Concept & original design : Baudouin d'Aumeries
Assistance for programming : Marc-Olivier Méhu
Technical & hardware support : Manuel Goepfert

Contact : metmap@orbifly.com




SOURCES & CREDITS :

   NOAA       Earth
Advisory